sensor_id;sensor_type;location;lat;lon;timestamp;temperature;humidity
7598;DHT22;3840;59.32098800;18.06423600;2023-01-31T00:01:20;2.00;99.90
7598;DHT22;3840;59.32098800;18.06423600;2023-01-31T00:03:46;2.00;99.90
7598;DHT22;3840;59.32098800;18.06423600;2023-01-31T00:06:16;2.00;99.90
7598;DHT22;3840;59.32098800;18.06423600;2023-01-31T00:08:43;1.90;99.90
7598;DHT22;3840;59.32098800;18.06423600;2023-01-31T00:11:09;1.90;99.90
7598;DHT22;3840;59.32098800;18.06423600;2023-01-31T00:13:36;1.80;99.90
7598;DHT22;3840;59.32098800;18.06423600;2023-01-31T00:16:02;1.90;99.90
7598;DHT22;3840;59.32098800;18.06423600;2023-01-31T00:18:28;1.90;99.90
7598;DHT22;3840;59.32098800;18.06423600;2023-01-31T00:20:54;1.80;99.90
7598;DHT22;3840;59.32098800;18.06423600;2023-01-31T00:23:20;1.80;99.90
7598;DHT22;3840;59.32098800;18.06423600;2023-01-31T00:25:46;1.80;99.90
7598;DHT22;3840;59.32098800;18.06423600;2023-01-31T00:28:11;1.80;99.90
7598;DHT22;3840;59.32098800;18.06423600;2023-01-31T00:30:37;1.80;99.90
7598;DHT22;3840;59.32098800;18.06423600;2023-01-31T00:33:03;1.70;99.90
7598;DHT22;3840;59.32098800;18.06423600;2023-01-31T00:35:29;1.80;99.90
7598;DHT22;3840;59.32098800;18.06423600;2023-01-31T00:37:54;1.80;99.90
7598;DHT22;3840;59.32098800;18.06423600;2023-01-31T00:40:20;1.70;99.90
7598;DHT22;3840;59.32098800;18.06423600;2023-01-31T00:42:46;1.70;99.90
7598;DHT22;3840;59.32098800;18.06423600;2023-01-31T00:45:11;1.60;99.90
7598;DHT22;3840;59.32098800;18.06423600;2023-01-31T00:47:38;1.70;99.90
7598;DHT22;3840;59.32098800;18.06423600;2023-01-31T00:50:04;1.70;99.90
7598;DHT22;3840;59.32098800;18.06423600;2023-01-31T00:52:30;1.70;99.90
7598;DHT22;3840;59.32098800;18.06423600;2023-01-31T00:54:56;1.70;99.90
7598;DHT22;3840;59.32098800;18.06423600;2023-01-31T00:57:22;1.70;99.90
7598;DHT22;3840;59.32098800;18.06423600;2023-01-31T00:59:47;1.70;99.90
7598;DHT22;3840;59.32098800;18.06423600;2023-01-31T01:02:13;1.70;99.90
7598;DHT22;3840;59.32098800;18.06423600;2023-01-31T01:04:39;1.70;99.90
7598;DHT22;3840;59.32098800;18.06423600;2023-01-31T01:07:05;1.70;99.90
7598;DHT22;3840;59.32098800;18.06423600;2023-01-31T01:09:30;1.70;99.90
7598;DHT22;3840;59.32098800;18.06423600;2023-01-31T01:11:56;1.70;99.90
7598;DHT22;3840;59.32098800;18.06423600;2023-01-31T01:14:22;1.70;99.90
7598;DHT22;3840;59.32098800;18.06423600;2023-01-31T01:16:48;1.60;99.90
7598;DHT22;3840;59.32098800;18.06423600;2023-01-31T01:19:18;1.60;99.90
7598;DHT22;3840;59.32098800;18.06423600;2023-01-31T01:21:44;1.60;99.90
7598;DHT22;3840;59.32098800;18.06423600;2023-01-31T01:24:16;1.60;99.90
7598;DHT22;3840;59.32098800;18.06423600;2023-01-31T01:26:42;1.60;99.90
7598;DHT22;3840;59.32098800;18.06423600;2023-01-31T01:29:09;1.60;99.90
7598;DHT22;3840;59.32098800;18.06423600;2023-01-31T01:31:36;1.60;99.90
7598;DHT22;3840;59.32098800;18.06423600;2023-01-31T01:34:05;1.60;99.90
7598;DHT22;3840;59.32098800;18.06423600;2023-01-31T01:36:33;1.60;99.90
7598;DHT22;3840;59.32098800;18.06423600;2023-01-31T01:38:59;1.60;99.90
7598;DHT22;3840;59.32098800;18.06423600;2023-01-31T01:41:25;1.60;99.90
7598;DHT22;3840;59.32098800;18.06423600;2023-01-31T01:43:56;1.70;99.90
7598;DHT22;3840;59.32098800;18.06423600;2023-01-31T01:49:05;1.70;99.90
7598;DHT22;3840;59.32098800;18.06423600;2023-01-31T01:51:37;1.70;99.90
7598;DHT22;3840;59.32098800;18.06423600;2023-01-31T01:54:08;1.60;99.90
7598;DHT22;3840;59.32098800;18.06423600;2023-01-31T01:56:38;1.60;99.90
7598;DHT22;3840;59.32098800;18.06423600;2023-01-31T01:59:13;1.60;99.90
7598;DHT22;3840;59.32098800;18.06423600;2023-01-31T02:01:40;1.70;99.90
7598;DHT22;3840;59.32098800;18.06423600;2023-01-31T02:04:11;1.60;99.90
7598;DHT22;3840;59.32098800;18.06423600;2023-01-31T02:06:39;1.70;99.90
7598;DHT22;3840;59.32098800;18.06423600;2023-01-31T02:09:07;1.60;99.90
7598;DHT22;3840;59.32098800;18.06423600;2023-01-31T02:11:34;1.50;99.90
7598;DHT22;3840;59.32098800;18.06423600;2023-01-31T02:14:02;1.50;99.90
7598;DHT22;3840;59.32098800;18.06423600;2023-01-31T02:16:29;1.50;99.90
7598;DHT22;3840;59.32098800;18.06423600;2023-01-31T02:18:56;1.50;99.90
7598;DHT22;3840;59.32098800;18.06423600;2023-01-31T02:29:42;1.40;99.90
7598;DHT22;3840;59.32098800;18.06423600;2023-01-31T02:35:16;1.40;99.90
7598;DHT22;3840;59.32098800;18.06423600;2023-01-31T02:43:21;1.30;99.90
7598;DHT22;3840;59.32098800;18.06423600;2023-01-31T02:46:00;1.20;99.90
7598;DHT22;3840;59.32098800;18.06423600;2023-01-31T02:48:52;1.10;99.90
7598;DHT22;3840;59.32098800;18.06423600;2023-01-31T02:51:30;1.10;99.90
7598;DHT22;3840;59.32098800;18.06423600;2023-01-31T02:54:07;1.00;99.90
7598;DHT22;3840;59.32098800;18.06423600;2023-01-31T02:56:36;1.00;99.90
7598;DHT22;3840;59.32098800;18.06423600;2023-01-31T02:59:16;0.90;99.90
7598;DHT22;3840;59.32098800;18.06423600;2023-01-31T03:01:49;0.80;99.90
7598;DHT22;3840;59.32098800;18.06423600;2023-01-31T03:04:16;0.90;99.90
7598;DHT22;3840;59.32098800;18.06423600;2023-01-31T03:06:54;0.90;99.90
7598;DHT22;3840;59.32098800;18.06423600;2023-01-31T03:10:18;0.90;99.90
7598;DHT22;3840;59.32098800;18.06423600;2023-01-31T03:16:01;0.90;99.90
7598;DHT22;3840;59.32098800;18.06423600;2023-01-31T03:19:08;0.90;99.90
7598;DHT22;3840;59.32098800;18.06423600;2023-01-31T03:21:45;0.90;99.90
7598;DHT22;3840;59.32098800;18.06423600;2023-01-31T03:24:13;0.90;99.90
7598;DHT22;3840;59.32098800;18.06423600;2023-01-31T03:26:40;1.00;99.90
7598;DHT22;3840;59.32098800;18.06423600;2023-01-31T03:29:07;0.90;99.90
7598;DHT22;3840;59.32098800;18.06423600;2023-01-31T03:31:38;0.80;99.90
7598;DHT22;3840;59.32098800;18.06423600;2023-01-31T03:34:07;0.90;99.90
7598;DHT22;3840;59.32098800;18.06423600;2023-01-31T03:42:10;1.00;99.90
7598;DHT22;3840;59.32098800;18.06423600;2023-01-31T03:47:32;1.00;99.90
7598;DHT22;3840;59.32098800;18.06423600;2023-01-31T03:50:04;1.10;99.90
7598;DHT22;3840;59.32098800;18.06423600;2023-01-31T03:52:36;1.00;99.90
7598;DHT22;3840;59.32098800;18.06423600;2023-01-31T03:55:26;1.00;99.90
7598;DHT22;3840;59.32098800;18.06423600;2023-01-31T03:57:55;0.90;99.90
7598;DHT22;3840;59.32098800;18.06423600;2023-01-31T04:00:24;1.00;99.90
7598;DHT22;3840;59.32098800;18.06423600;2023-01-31T04:03:06;1.00;99.90
7598;DHT22;3840;59.32098800;18.06423600;2023-01-31T04:05:36;1.00;99.90
7598;DHT22;3840;59.32098800;18.06423600;2023-01-31T04:08:02;1.00;99.90
7598;DHT22;3840;59.32098800;18.06423600;2023-01-31T04:10:27;1.00;99.90
7598;DHT22;3840;59.32098800;18.06423600;2023-01-31T04:12:53;1.10;99.90
7598;DHT22;3840;59.32098800;18.06423600;2023-01-31T04:15:19;1.10;99.90
7598;DHT22;3840;59.32098800;18.06423600;2023-01-31T04:17:45;1.10;99.90
7598;DHT22;3840;59.32098800;18.06423600;2023-01-31T04:20:11;1.20;99.90
7598;DHT22;3840;59.32098800;18.06423600;2023-01-31T04:22:37;1.20;99.90
7598;DHT22;3840;59.32098800;18.06423600;2023-01-31T04:25:04;1.10;99.90
7598;DHT22;3840;59.32098800;18.06423600;2023-01-31T04:27:30;1.10;99.90
7598;DHT22;3840;59.32098800;18.06423600;2023-01-31T04:29:56;1.10;99.90
7598;DHT22;3840;59.32098800;18.06423600;2023-01-31T04:32:21;1.00;99.90
7598;DHT22;3840;59.32098800;18.06423600;2023-01-31T04:34:47;1.10;99.90
7598;DHT22;3840;59.32098800;18.06423600;2023-01-31T04:37:13;1.10;99.90
7598;DHT22;3840;59.32098800;18.06423600;2023-01-31T04:39:39;1.00;99.90
7598;DHT22;3840;59.32098800;18.06423600;2023-01-31T04:42:05;1.00;99.90
7598;DHT22;3840;59.32098800;18.06423600;2023-01-31T04:44:31;1.00;99.90
7598;DHT22;3840;59.32098800;18.06423600;2023-01-31T04:46:56;1.00;99.90
7598;DHT22;3840;59.32098800;18.06423600;2023-01-31T04:49:22;1.00;99.90
7598;DHT22;3840;59.32098800;18.06423600;2023-01-31T04:51:48;0.90;99.90
7598;DHT22;3840;59.32098800;18.06423600;2023-01-31T04:54:13;0.90;99.90
7598;DHT22;3840;59.32098800;18.06423600;2023-01-31T04:56:39;1.00;99.90
7598;DHT22;3840;59.32098800;18.06423600;2023-01-31T04:59:05;0.90;99.90
7598;DHT22;3840;59.32098800;18.06423600;2023-01-31T05:01:31;1.00;99.90
7598;DHT22;3840;59.32098800;18.06423600;2023-01-31T05:03:56;0.90;99.90
7598;DHT22;3840;59.32098800;18.06423600;2023-01-31T05:06:22;0.90;99.90
7598;DHT22;3840;59.32098800;18.06423600;2023-01-31T05:08:48;0.90;99.90
7598;DHT22;3840;59.32098800;18.06423600;2023-01-31T05:11:13;0.90;99.90
7598;DHT22;3840;59.32098800;18.06423600;2023-01-31T05:13:40;0.90;99.90
7598;DHT22;3840;59.32098800;18.06423600;2023-01-31T05:16:08;0.90;99.90
7598;DHT22;3840;59.32098800;18.06423600;2023-01-31T05:18:36;0.80;99.90
7598;DHT22;3840;59.32098800;18.06423600;2023-01-31T05:21:03;0.80;99.90
7598;DHT22;3840;59.32098800;18.06423600;2023-01-31T05:23:29;0.80;99.90
7598;DHT22;3840;59.32098800;18.06423600;2023-01-31T05:25:55;0.70;99.90
7598;DHT22;3840;59.32098800;18.06423600;2023-01-31T05:28:21;0.70;99.90
7598;DHT22;3840;59.32098800;18.06423600;2023-01-31T05:30:48;0.80;99.90
7598;DHT22;3840;59.32098800;18.06423600;2023-01-31T05:33:14;0.80;99.90
7598;DHT22;3840;59.32098800;18.06423600;2023-01-31T05:35:40;0.70;99.90
7598;DHT22;3840;59.32098800;18.06423600;2023-01-31T05:38:07;0.70;99.90
7598;DHT22;3840;59.32098800;18.06423600;2023-01-31T05:40:33;0.80;99.90
7598;DHT22;3840;59.32098800;18.06423600;2023-01-31T05:42:59;0.90;99.90
7598;DHT22;3840;59.32098800;18.06423600;2023-01-31T05:45:26;0.90;99.90
7598;DHT22;3840;59.32098800;18.06423600;2023-01-31T05:47:52;0.80;99.90
7598;DHT22;3840;59.32098800;18.06423600;2023-01-31T05:50:19;0.80;99.90
7598;DHT22;3840;59.32098800;18.06423600;2023-01-31T05:52:56;0.90;99.90
7598;DHT22;3840;59.32098800;18.06423600;2023-01-31T05:55:24;0.80;99.90
7598;DHT22;3840;59.32098800;18.06423600;2023-01-31T05:57:52;0.80;99.90
7598;DHT22;3840;59.32098800;18.06423600;2023-01-31T06:00:18;0.70;99.90
7598;DHT22;3840;59.32098800;18.06423600;2023-01-31T06:02:44;0.60;99.90
7598;DHT22;3840;59.32098800;18.06423600;2023-01-31T06:05:10;0.50;99.90
7598;DHT22;3840;59.32098800;18.06423600;2023-01-31T06:07:37;0.50;99.90
7598;DHT22;3840;59.32098800;18.06423600;2023-01-31T06:10:03;0.50;99.90
7598;DHT22;3840;59.32098800;18.06423600;2023-01-31T06:12:29;0.40;99.90
7598;DHT22;3840;59.32098800;18.06423600;2023-01-31T06:15:01;0.40;99.90
7598;DHT22;3840;59.32098800;18.06423600;2023-01-31T06:17:26;0.50;99.90
7598;DHT22;3840;59.32098800;18.06423600;2023-01-31T06:19:52;0.30;99.90
7598;DHT22;3840;59.32098800;18.06423600;2023-01-31T06:22:19;0.30;99.90
7598;DHT22;3840;59.32098800;18.06423600;2023-01-31T06:24:45;0.30;99.90
7598;DHT22;3840;59.32098800;18.06423600;2023-01-31T06:27:11;0.30;99.90
7598;DHT22;3840;59.32098800;18.06423600;2023-01-31T06:29:37;0.30;99.90
7598;DHT22;3840;59.32098800;18.06423600;2023-01-31T06:32:03;0.20;99.90
7598;DHT22;3840;59.32098800;18.06423600;2023-01-31T06:34:29;0.20;99.90
7598;DHT22;3840;59.32098800;18.06423600;2023-01-31T06:36:54;0.20;99.90
7598;DHT22;3840;59.32098800;18.06423600;2023-01-31T06:39:20;0.20;99.90
7598;DHT22;3840;59.32098800;18.06423600;2023-01-31T06:41:47;0.10;99.90
7598;DHT22;3840;59.32098800;18.06423600;2023-01-31T06:44:13;0.10;99.90
7598;DHT22;3840;59.32098800;18.06423600;2023-01-31T06:46:38;0.10;99.90
7598;DHT22;3840;59.32098800;18.06423600;2023-01-31T06:49:04;0.00;99.90
7598;DHT22;3840;59.32098800;18.06423600;2023-01-31T06:51:30;0.00;99.90
7598;DHT22;3840;59.32098800;18.06423600;2023-01-31T06:53:55;-0.10;99.90
7598;DHT22;3840;59.32098800;18.06423600;2023-01-31T06:56:23;0.00;99.90
7598;DHT22;3840;59.32098800;18.06423600;2023-01-31T06:58:49;0.00;99.90
7598;DHT22;3840;59.32098800;18.06423600;2023-01-31T07:01:15;-0.10;99.90
7598;DHT22;3840;59.32098800;18.06423600;2023-01-31T07:03:42;-0.10;99.90
7598;DHT22;3840;59.32098800;18.06423600;2023-01-31T07:06:08;0.00;99.90
7598;DHT22;3840;59.32098800;18.06423600;2023-01-31T07:08:35;0.10;99.90
7598;DHT22;3840;59.32098800;18.06423600;2023-01-31T07:11:01;-0.10;99.90
7598;DHT22;3840;59.32098800;18.06423600;2023-01-31T07:13:29;0.00;99.90
7598;DHT22;3840;59.32098800;18.06423600;2023-01-31T07:15:55;0.00;99.90
7598;DHT22;3840;59.32098800;18.06423600;2023-01-31T07:18:21;0.00;99.90
7598;DHT22;3840;59.32098800;18.06423600;2023-01-31T07:20:48;0.00;99.90
7598;DHT22;3840;59.32098800;18.06423600;2023-01-31T07:23:15;0.00;99.90
7598;DHT22;3840;59.32098800;18.06423600;2023-01-31T07:25:41;0.00;99.90
7598;DHT22;3840;59.32098800;18.06423600;2023-01-31T07:28:07;0.00;99.90
7598;DHT22;3840;59.32098800;18.06423600;2023-01-31T07:30:32;0.00;99.90
7598;DHT22;3840;59.32098800;18.06423600;2023-01-31T07:32:59;0.00;99.90
7598;DHT22;3840;59.32098800;18.06423600;2023-01-31T07:35:25;0.00;99.90
7598;DHT22;3840;59.32098800;18.06423600;2023-01-31T07:37:51;0.00;99.90
7598;DHT22;3840;59.32098800;18.06423600;2023-01-31T07:40:17;0.00;99.90
7598;DHT22;3840;59.32098800;18.06423600;2023-01-31T07:42:43;0.00;99.90
7598;DHT22;3840;59.32098800;18.06423600;2023-01-31T07:45:12;0.00;99.90
7598;DHT22;3840;59.32098800;18.06423600;2023-01-31T07:47:38;0.00;99.90
7598;DHT22;3840;59.32098800;18.06423600;2023-01-31T07:50:04;0.10;99.90
7598;DHT22;3840;59.32098800;18.06423600;2023-01-31T07:52:31;0.10;99.90
7598;DHT22;3840;59.32098800;18.06423600;2023-01-31T07:54:59;0.10;99.90
7598;DHT22;3840;59.32098800;18.06423600;2023-01-31T07:57:25;0.10;99.90
7598;DHT22;3840;59.32098800;18.06423600;2023-01-31T07:59:51;0.20;99.90
7598;DHT22;3840;59.32098800;18.06423600;2023-01-31T08:02:19;0.20;99.90
7598;DHT22;3840;59.32098800;18.06423600;2023-01-31T08:05:04;0.20;99.90
7598;DHT22;3840;59.32098800;18.06423600;2023-01-31T08:07:30;0.30;99.90
7598;DHT22;3840;59.32098800;18.06423600;2023-01-31T08:09:56;0.20;99.90
7598;DHT22;3840;59.32098800;18.06423600;2023-01-31T08:12:21;0.30;99.90
7598;DHT22;3840;59.32098800;18.06423600;2023-01-31T08:14:47;0.30;99.90
7598;DHT22;3840;59.32098800;18.06423600;2023-01-31T08:17:13;0.30;99.90
7598;DHT22;3840;59.32098800;18.06423600;2023-01-31T08:19:38;0.30;99.90
7598;DHT22;3840;59.32098800;18.06423600;2023-01-31T08:22:04;0.30;99.90
7598;DHT22;3840;59.32098800;18.06423600;2023-01-31T08:24:31;0.30;99.90
7598;DHT22;3840;59.32098800;18.06423600;2023-01-31T08:26:57;0.20;99.90
7598;DHT22;3840;59.32098800;18.06423600;2023-01-31T08:29:23;0.30;99.90
7598;DHT22;3840;59.32098800;18.06423600;2023-01-31T08:31:50;0.30;99.90
7598;DHT22;3840;59.32098800;18.06423600;2023-01-31T08:34:16;0.30;99.90
7598;DHT22;3840;59.32098800;18.06423600;2023-01-31T08:36:43;0.30;99.90
7598;DHT22;3840;59.32098800;18.06423600;2023-01-31T08:39:09;0.30;99.90
7598;DHT22;3840;59.32098800;18.06423600;2023-01-31T08:41:37;0.40;99.90
7598;DHT22;3840;59.32098800;18.06423600;2023-01-31T08:44:04;0.40;99.90
7598;DHT22;3840;59.32098800;18.06423600;2023-01-31T08:46:32;0.40;99.90
7598;DHT22;3840;59.32098800;18.06423600;2023-01-31T08:49:02;0.40;99.90
7598;DHT22;3840;59.32098800;18.06423600;2023-01-31T08:51:29;0.40;99.90
7598;DHT22;3840;59.32098800;18.06423600;2023-01-31T08:53:54;0.50;99.90
7598;DHT22;3840;59.32098800;18.06423600;2023-01-31T08:56:21;0.50;99.90
7598;DHT22;3840;59.32098800;18.06423600;2023-01-31T08:58:50;0.50;99.90
7598;DHT22;3840;59.32098800;18.06423600;2023-01-31T09:01:18;0.50;99.90
7598;DHT22;3840;59.32098800;18.06423600;2023-01-31T09:03:45;0.60;99.90
7598;DHT22;3840;59.32098800;18.06423600;2023-01-31T09:06:14;0.60;99.90
7598;DHT22;3840;59.32098800;18.06423600;2023-01-31T09:08:40;0.60;99.90
7598;DHT22;3840;59.32098800;18.06423600;2023-01-31T09:11:06;0.60;99.90
7598;DHT22;3840;59.32098800;18.06423600;2023-01-31T09:13:33;0.60;99.90
7598;DHT22;3840;59.32098800;18.06423600;2023-01-31T09:16:00;0.70;99.90
7598;DHT22;3840;59.32098800;18.06423600;2023-01-31T09:18:27;0.60;99.90
7598;DHT22;3840;59.32098800;18.06423600;2023-01-31T09:20:53;0.70;99.90
7598;DHT22;3840;59.32098800;18.06423600;2023-01-31T09:23:21;0.70;99.90
7598;DHT22;3840;59.32098800;18.06423600;2023-01-31T09:25:56;0.70;99.90
7598;DHT22;3840;59.32098800;18.06423600;2023-01-31T09:28:23;0.70;99.90
7598;DHT22;3840;59.32098800;18.06423600;2023-01-31T09:30:49;0.70;99.90
7598;DHT22;3840;59.32098800;18.06423600;2023-01-31T09:33:15;0.70;99.90
7598;DHT22;3840;59.32098800;18.06423600;2023-01-31T09:35:41;0.70;99.90
7598;DHT22;3840;59.32098800;18.06423600;2023-01-31T09:38:07;0.70;99.90
7598;DHT22;3840;59.32098800;18.06423600;2023-01-31T09:40:34;0.80;99.90
7598;DHT22;3840;59.32098800;18.06423600;2023-01-31T09:43:02;0.80;99.90
7598;DHT22;3840;59.32098800;18.06423600;2023-01-31T09:45:32;0.80;99.90
7598;DHT22;3840;59.32098800;18.06423600;2023-01-31T09:48:01;0.80;99.90
7598;DHT22;3840;59.32098800;18.06423600;2023-01-31T09:52:59;0.80;99.90
7598;DHT22;3840;59.32098800;18.06423600;2023-01-31T09:55:47;0.70;99.90
7598;DHT22;3840;59.32098800;18.06423600;2023-01-31T10:03:42;0.90;99.90
7598;DHT22;3840;59.32098800;18.06423600;2023-01-31T10:06:19;0.90;99.90
7598;DHT22;3840;59.32098800;18.06423600;2023-01-31T10:09:02;1.00;99.90
7598;DHT22;3840;59.32098800;18.06423600;2023-01-31T10:11:35;1.00;99.90
7598;DHT22;3840;59.32098800;18.06423600;2023-01-31T10:17:06;1.00;99.90
7598;DHT22;3840;59.32098800;18.06423600;2023-01-31T10:20:02;0.90;99.90
7598;DHT22;3840;59.32098800;18.06423600;2023-01-31T10:25:28;1.00;99.90
7598;DHT22;3840;59.32098800;18.06423600;2023-01-31T10:28:15;1.10;99.90
7598;DHT22;3840;59.32098800;18.06423600;2023-01-31T10:33:46;1.20;99.90
7598;DHT22;3840;59.32098800;18.06423600;2023-01-31T10:36:35;1.10;99.90
7598;DHT22;3840;59.32098800;18.06423600;2023-01-31T10:42:10;1.20;99.90
7598;DHT22;3840;59.32098800;18.06423600;2023-01-31T10:47:17;1.20;99.90
7598;DHT22;3840;59.32098800;18.06423600;2023-01-31T10:49:46;1.20;99.90
7598;DHT22;3840;59.32098800;18.06423600;2023-01-31T10:55:30;1.30;99.90
7598;DHT22;3840;59.32098800;18.06423600;2023-01-31T10:57:58;1.30;99.90
7598;DHT22;3840;59.32098800;18.06423600;2023-01-31T11:00:30;1.30;99.90
7598;DHT22;3840;59.32098800;18.06423600;2023-01-31T11:02:57;1.30;99.90
7598;DHT22;3840;59.32098800;18.06423600;2023-01-31T11:05:25;1.40;99.90
7598;DHT22;3840;59.32098800;18.06423600;2023-01-31T11:07:52;1.40;99.90
7598;DHT22;3840;59.32098800;18.06423600;2023-01-31T11:10:30;1.40;99.90
7598;DHT22;3840;59.32098800;18.06423600;2023-01-31T11:12:59;1.40;99.90
7598;DHT22;3840;59.32098800;18.06423600;2023-01-31T11:15:27;1.40;99.90
7598;DHT22;3840;59.32098800;18.06423600;2023-01-31T11:17:58;1.40;99.90
7598;DHT22;3840;59.32098800;18.06423600;2023-01-31T11:20:34;1.40;99.90
7598;DHT22;3840;59.32098800;18.06423600;2023-01-31T11:23:01;1.40;99.90
7598;DHT22;3840;59.32098800;18.06423600;2023-01-31T11:25:30;1.40;99.90
7598;DHT22;3840;59.32098800;18.06423600;2023-01-31T11:28:02;1.50;99.90
7598;DHT22;3840;59.32098800;18.06423600;2023-01-31T11:30:31;1.50;99.90
7598;DHT22;3840;59.32098800;18.06423600;2023-01-31T11:32:59;1.50;99.90
7598;DHT22;3840;59.32098800;18.06423600;2023-01-31T11:35:31;1.50;99.90
7598;DHT22;3840;59.32098800;18.06423600;2023-01-31T11:40:37;1.50;99.90
7598;DHT22;3840;59.32098800;18.06423600;2023-01-31T11:43:24;1.60;99.90
7598;DHT22;3840;59.32098800;18.06423600;2023-01-31T11:45:56;1.60;99.90
7598;DHT22;3840;59.32098800;18.06423600;2023-01-31T11:48:44;1.60;99.90
7598;DHT22;3840;59.32098800;18.06423600;2023-01-31T11:51:23;1.60;99.90
7598;DHT22;3840;59.32098800;18.06423600;2023-01-31T11:53:51;1.60;99.90
7598;DHT22;3840;59.32098800;18.06423600;2023-01-31T11:56:25;1.60;99.90
7598;DHT22;3840;59.32098800;18.06423600;2023-01-31T11:58:54;1.60;99.90
7598;DHT22;3840;59.32098800;18.06423600;2023-01-31T12:01:23;1.60;99.90
7598;DHT22;3840;59.32098800;18.06423600;2023-01-31T12:06:37;1.60;99.90
7598;DHT22;3840;59.32098800;18.06423600;2023-01-31T12:09:17;1.70;99.90
7598;DHT22;3840;59.32098800;18.06423600;2023-01-31T12:11:51;1.60;99.90
7598;DHT22;3840;59.32098800;18.06423600;2023-01-31T12:14:17;1.60;99.90
7598;DHT22;3840;59.32098800;18.06423600;2023-01-31T12:16:47;1.60;99.90
7598;DHT22;3840;59.32098800;18.06423600;2023-01-31T12:19:35;1.60;99.90
7598;DHT22;3840;59.32098800;18.06423600;2023-01-31T12:22:22;1.60;99.90
7598;DHT22;3840;59.32098800;18.06423600;2023-01-31T12:25:27;1.60;99.90
7598;DHT22;3840;59.32098800;18.06423600;2023-01-31T12:41:47;1.60;99.90
7598;DHT22;3840;59.32098800;18.06423600;2023-01-31T12:53:06;1.60;99.90
7598;DHT22;3840;59.32098800;18.06423600;2023-01-31T13:01:03;1.70;99.90
7598;DHT22;3840;59.32098800;18.06423600;2023-01-31T13:06:11;1.70;99.90
7598;DHT22;3840;59.32098800;18.06423600;2023-01-31T13:08:42;1.70;99.90
7598;DHT22;3840;59.32098800;18.06423600;2023-01-31T13:11:16;1.70;99.90
7598;DHT22;3840;59.32098800;18.06423600;2023-01-31T13:13:56;1.70;99.90
7598;DHT22;3840;59.32098800;18.06423600;2023-01-31T13:16:53;1.70;99.90
7598;DHT22;3840;59.32098800;18.06423600;2023-01-31T13:21:57;1.70;99.90
7598;DHT22;3840;59.32098800;18.06423600;2023-01-31T13:24:31;1.70;99.90
7598;DHT22;3840;59.32098800;18.06423600;2023-01-31T13:27:02;1.70;99.90
7598;DHT22;3840;59.32098800;18.06423600;2023-01-31T13:29:50;1.70;99.90
7598;DHT22;3840;59.32098800;18.06423600;2023-01-31T13:34:54;1.70;99.90
7598;DHT22;3840;59.32098800;18.06423600;2023-01-31T13:37:21;1.60;99.90
7598;DHT22;3840;59.32098800;18.06423600;2023-01-31T13:40:02;1.60;99.90
7598;DHT22;3840;59.32098800;18.06423600;2023-01-31T13:42:29;1.50;99.90
7598;DHT22;3840;59.32098800;18.06423600;2023-01-31T13:44:55;1.50;99.90
7598;DHT22;3840;59.32098800;18.06423600;2023-01-31T13:47:29;1.50;99.90
7598;DHT22;3840;59.32098800;18.06423600;2023-01-31T13:52:53;1.40;99.90
7598;DHT22;3840;59.32098800;18.06423600;2023-01-31T13:55:31;1.40;99.90
7598;DHT22;3840;59.32098800;18.06423600;2023-01-31T13:58:05;1.40;99.90
7598;DHT22;3840;59.32098800;18.06423600;2023-01-31T14:00:41;1.40;99.90
7598;DHT22;3840;59.32098800;18.06423600;2023-01-31T14:03:11;1.40;99.90
7598;DHT22;3840;59.32098800;18.06423600;2023-01-31T14:08:30;1.40;99.90
7598;DHT22;3840;59.32098800;18.06423600;2023-01-31T14:11:40;1.30;99.90
7598;DHT22;3840;59.32098800;18.06423600;2023-01-31T14:14:09;1.30;99.90
7598;DHT22;3840;59.32098800;18.06423600;2023-01-31T14:19:03;1.30;99.90
7598;DHT22;3840;59.32098800;18.06423600;2023-01-31T14:23:58;1.30;99.90
7598;DHT22;3840;59.32098800;18.06423600;2023-01-31T14:29:13;1.20;99.90
7598;DHT22;3840;59.32098800;18.06423600;2023-01-31T14:31:40;1.20;99.90
7598;DHT22;3840;59.32098800;18.06423600;2023-01-31T14:34:19;1.30;99.90
7598;DHT22;3840;59.32098800;18.06423600;2023-01-31T14:37:04;1.20;99.90
7598;DHT22;3840;59.32098800;18.06423600;2023-01-31T14:45:36;1.10;99.90
7598;DHT22;3840;59.32098800;18.06423600;2023-01-31T14:51:11;1.00;99.90
7598;DHT22;3840;59.32098800;18.06423600;2023-01-31T14:56:44;0.90;99.90
7598;DHT22;3840;59.32098800;18.06423600;2023-01-31T14:59:28;0.80;99.90
7598;DHT22;3840;59.32098800;18.06423600;2023-01-31T15:01:57;0.80;99.90
7598;DHT22;3840;59.32098800;18.06423600;2023-01-31T15:04:24;0.70;99.90
7598;DHT22;3840;59.32098800;18.06423600;2023-01-31T15:06:53;0.10;99.90
7598;DHT22;3840;59.32098800;18.06423600;2023-01-31T15:11:51;0.70;99.90
7598;DHT22;3840;59.32098800;18.06423600;2023-01-31T15:14:37;0.70;99.90
7598;DHT22;3840;59.32098800;18.06423600;2023-01-31T15:17:16;0.70;99.90
7598;DHT22;3840;59.32098800;18.06423600;2023-01-31T15:19:47;0.60;99.90
7598;DHT22;3840;59.32098800;18.06423600;2023-01-31T15:22:16;0.60;99.90
7598;DHT22;3840;59.32098800;18.06423600;2023-01-31T15:24:55;0.50;99.90
7598;DHT22;3840;59.32098800;18.06423600;2023-01-31T15:27:31;0.50;99.90
7598;DHT22;3840;59.32098800;18.06423600;2023-01-31T15:32:52;0.50;99.90
7598;DHT22;3840;59.32098800;18.06423600;2023-01-31T15:35:21;0.40;99.90
7598;DHT22;3840;59.32098800;18.06423600;2023-01-31T15:37:55;0.40;99.90
7598;DHT22;3840;59.32098800;18.06423600;2023-01-31T15:40:24;0.40;99.90
7598;DHT22;3840;59.32098800;18.06423600;2023-01-31T15:42:53;0.40;99.90
7598;DHT22;3840;59.32098800;18.06423600;2023-01-31T15:45:25;0.30;99.90
7598;DHT22;3840;59.32098800;18.06423600;2023-01-31T15:48:05;0.30;99.90
7598;DHT22;3840;59.32098800;18.06423600;2023-01-31T15:50:33;0.20;99.90
7598;DHT22;3840;59.32098800;18.06423600;2023-01-31T15:53:04;0.20;99.90
7598;DHT22;3840;59.32098800;18.06423600;2023-01-31T15:55:33;0.20;99.90
7598;DHT22;3840;59.32098800;18.06423600;2023-01-31T15:58:00;0.10;99.90
7598;DHT22;3840;59.32098800;18.06423600;2023-01-31T16:00:32;0.20;99.90
7598;DHT22;3840;59.32098800;18.06423600;2023-01-31T16:02:59;0.20;99.90
7598;DHT22;3840;59.32098800;18.06423600;2023-01-31T16:05:30;0.10;99.90
7598;DHT22;3840;59.32098800;18.06423600;2023-01-31T16:08:01;0.10;99.90